sensor_id;sensor_type;location;lat;lon;timestamp;P1;durP1;ratioP1;P2;durP2;ratioP2
64060;SDS011;60147;55.036;73.242;2023-09-12T00:01:05;2.90;;;1.38;;
64060;SDS011;60147;55.036;73.242;2023-09-12T00:03:31;2.65;;;1.30;;
64060;SDS011;60147;55.036;73.242;2023-09-12T00:05:58;3.13;;;1.40;;
64060;SDS011;60147;55.036;73.242;2023-09-12T00:08:25;5.28;;;1.40;;
64060;SDS011;60147;55.036;73.242;2023-09-12T00:13:25;1.70;;;1.08;;
64060;SDS011;60147;55.036;73.242;2023-09-12T00:15:51;2.80;;;1.35;;
64060;SDS011;60147;55.036;73.242;2023-09-12T00:18:18;1.83;;;1.00;;
64060;SDS011;60147;55.036;73.242;2023-09-12T00:20:44;2.67;;;1.38;;
64060;SDS011;60147;55.036;73.242;2023-09-12T00:23:10;2.03;;;1.27;;
64060;SDS011;60147;55.036;73.242;2023-09-12T00:25:35;3.30;;;1.10;;
64060;SDS011;60147;55.036;73.242;2023-09-12T00:28:01;10.90;;;1.58;;
64060;SDS011;60147;55.036;73.242;2023-09-12T00:30:27;6.50;;;1.30;;
64060;SDS011;60147;55.036;73.242;2023-09-12T00:32:53;2.63;;;1.33;;
64060;SDS011;60147;55.036;73.242;2023-09-12T00:35:19;3.83;;;1.38;;
64060;SDS011;60147;55.036;73.242;2023-09-12T00:37:45;2.72;;;1.48;;
64060;SDS011;60147;55.036;73.242;2023-09-12T00:40:11;2.13;;;1.17;;
64060;SDS011;60147;55.036;73.242;2023-09-12T00:42:37;3.50;;;1.13;;
64060;SDS011;60147;55.036;73.242;2023-09-12T00:45:03;4.45;;;1.45;;
64060;SDS011;60147;55.036;73.242;2023-09-12T00:47:29;3.88;;;1.48;;
64060;SDS011;60147;55.036;73.242;2023-09-12T00:49:55;4.75;;;1.30;;
64060;SDS011;60147;55.036;73.242;2023-09-12T00:52:22;4.30;;;1.40;;
64060;SDS011;60147;55.036;73.242;2023-09-12T00:54:50;4.38;;;2.15;;
64060;SDS011;60147;55.036;73.242;2023-09-12T00:57:16;3.47;;;1.42;;
64060;SDS011;60147;55.036;73.242;2023-09-12T00:59:42;4.70;;;1.40;;
64060;SDS011;60147;55.036;73.242;2023-09-12T01:02:08;4.25;;;1.63;;
64060;SDS011;60147;55.036;73.242;2023-09-12T01:04:35;3.00;;;1.40;;
64060;SDS011;60147;55.036;73.242;2023-09-12T01:07:04;3.85;;;1.38;;
64060;SDS011;60147;55.036;73.242;2023-09-12T01:09:30;3.17;;;1.33;;
64060;SDS011;60147;55.036;73.242;2023-09-12T01:11:56;7.20;;;1.55;;
64060;SDS011;60147;55.036;73.242;2023-09-12T01:14:22;2.47;;;1.23;;
64060;SDS011;60147;55.036;73.242;2023-09-12T01:16:48;3.65;;;1.45;;
64060;SDS011;60147;55.036;73.242;2023-09-12T01:19:14;1.65;;;1.20;;
64060;SDS011;60147;55.036;73.242;2023-09-12T01:29:02;5.45;;;1.30;;
64060;SDS011;60147;55.036;73.242;2023-09-12T01:31:29;3.58;;;1.30;;
64060;SDS011;60147;55.036;73.242;2023-09-12T01:33:56;3.03;;;1.20;;
64060;SDS011;60147;55.036;73.242;2023-09-12T01:36:22;2.08;;;1.15;;
64060;SDS011;60147;55.036;73.242;2023-09-12T01:38:48;4.43;;;1.55;;
64060;SDS011;60147;55.036;73.242;2023-09-12T01:41:14;2.60;;;1.23;;
64060;SDS011;60147;55.036;73.242;2023-09-12T01:43:40;6.32;;;1.58;;
64060;SDS011;60147;55.036;73.242;2023-09-12T01:46:07;1.40;;;0.98;;
64060;SDS011;60147;55.036;73.242;2023-09-12T01:48:33;3.28;;;1.20;;
64060;SDS011;60147;55.036;73.242;2023-09-12T01:51:00;5.80;;;1.50;;
64060;SDS011;60147;55.036;73.242;2023-09-12T01:53:27;6.57;;;1.50;;
64060;SDS011;60147;55.036;73.242;2023-09-12T01:55:54;4.00;;;1.38;;
64060;SDS011;60147;55.036;73.242;2023-09-12T01:58:20;6.38;;;1.60;;
64060;SDS011;60147;55.036;73.242;2023-09-12T02:00:46;7.93;;;1.50;;
64060;SDS011;60147;55.036;73.242;2023-09-12T02:03:12;3.67;;;1.30;;
64060;SDS011;60147;55.036;73.242;2023-09-12T02:05:38;4.13;;;1.40;;
64060;SDS011;60147;55.036;73.242;2023-09-12T02:08:05;5.97;;;1.83;;
64060;SDS011;60147;55.036;73.242;2023-09-12T02:10:31;5.53;;;1.50;;
64060;SDS011;60147;55.036;73.242;2023-09-12T02:12:57;2.20;;;1.45;;
64060;SDS011;60147;55.036;73.242;2023-09-12T02:15:23;4.40;;;1.40;;
64060;SDS011;60147;55.036;73.242;2023-09-12T02:17:49;4.97;;;1.92;;
64060;SDS011;60147;55.036;73.242;2023-09-12T02:20:16;4.50;;;1.50;;
64060;SDS011;60147;55.036;73.242;2023-09-12T02:22:41;3.55;;;2.05;;
64060;SDS011;60147;55.036;73.242;2023-09-12T02:25:07;3.92;;;1.40;;
64060;SDS011;60147;55.036;73.242;2023-09-12T02:27:34;4.68;;;1.45;;
64060;SDS011;60147;55.036;73.242;2023-09-12T02:30:00;5.03;;;1.50;;
64060;SDS011;60147;55.036;73.242;2023-09-12T02:32:26;8.02;;;1.63;;
64060;SDS011;60147;55.036;73.242;2023-09-12T02:34:52;10.82;;;2.08;;
64060;SDS011;60147;55.036;73.242;2023-09-12T02:37:19;5.47;;;1.80;;
64060;SDS011;60147;55.036;73.242;2023-09-12T02:39:45;5.35;;;1.67;;
64060;SDS011;60147;55.036;73.242;2023-09-12T02:42:10;7.28;;;2.08;;
64060;SDS011;60147;55.036;73.242;2023-09-12T02:44:36;9.02;;;2.08;;
64060;SDS011;60147;55.036;73.242;2023-09-12T02:47:03;7.35;;;2.30;;
64060;SDS011;60147;55.036;73.242;2023-09-12T02:49:29;3.15;;;1.70;;
64060;SDS011;60147;55.036;73.242;2023-09-12T02:51:55;3.75;;;1.90;;
64060;SDS011;60147;55.036;73.242;2023-09-12T02:54:21;9.10;;;2.33;;
64060;SDS011;60147;55.036;73.242;2023-09-12T02:56:47;7.70;;;2.20;;
64060;SDS011;60147;55.036;73.242;2023-09-12T02:59:13;5.85;;;1.60;;
64060;SDS011;60147;55.036;73.242;2023-09-12T03:01:39;11.77;;;1.95;;
64060;SDS011;60147;55.036;73.242;2023-09-12T03:04:05;5.07;;;1.50;;
64060;SDS011;60147;55.036;73.242;2023-09-12T03:06:31;6.30;;;1.70;;
64060;SDS011;60147;55.036;73.242;2023-09-12T03:08:57;3.15;;;1.90;;
64060;SDS011;60147;55.036;73.242;2023-09-12T03:11:25;4.47;;;1.55;;
64060;SDS011;60147;55.036;73.242;2023-09-12T03:13:51;6.85;;;1.80;;
64060;SDS011;60147;55.036;73.242;2023-09-12T03:16:17;7.57;;;1.90;;
64060;SDS011;60147;55.036;73.242;2023-09-12T03:18:42;5.13;;;1.75;;
64060;SDS011;60147;55.036;73.242;2023-09-12T03:21:08;5.53;;;1.80;;
64060;SDS011;60147;55.036;73.242;2023-09-12T03:23:34;10.73;;;1.80;;
64060;SDS011;60147;55.036;73.242;2023-09-12T03:26:03;10.25;;;2.00;;
64060;SDS011;60147;55.036;73.242;2023-09-12T03:28:31;5.80;;;1.83;;
64060;SDS011;60147;55.036;73.242;2023-09-12T03:31:05;6.63;;;2.05;;
64060;SDS011;60147;55.036;73.242;2023-09-12T03:33:32;6.20;;;2.00;;
64060;SDS011;60147;55.036;73.242;2023-09-12T03:35:57;4.07;;;1.60;;
64060;SDS011;60147;55.036;73.242;2023-09-12T03:38:23;4.00;;;1.80;;
64060;SDS011;60147;55.036;73.242;2023-09-12T03:40:49;4.72;;;1.80;;
64060;SDS011;60147;55.036;73.242;2023-09-12T03:43:15;4.05;;;1.40;;
64060;SDS011;60147;55.036;73.242;2023-09-12T03:45:41;4.65;;;1.52;;
64060;SDS011;60147;55.036;73.242;2023-09-12T03:48:07;3.75;;;1.55;;
64060;SDS011;60147;55.036;73.242;2023-09-12T03:50:34;3.47;;;1.70;;
64060;SDS011;60147;55.036;73.242;2023-09-12T03:52:59;4.90;;;1.70;;
64060;SDS011;60147;55.036;73.242;2023-09-12T03:55:25;5.28;;;1.80;;
64060;SDS011;60147;55.036;73.242;2023-09-12T03:57:51;5.18;;;1.80;;
64060;SDS011;60147;55.036;73.242;2023-09-12T04:00:17;4.50;;;1.83;;
64060;SDS011;60147;55.036;73.242;2023-09-12T04:02:46;6.03;;;1.77;;
64060;SDS011;60147;55.036;73.242;2023-09-12T04:05:13;3.10;;;1.60;;
64060;SDS011;60147;55.036;73.242;2023-09-12T04:07:39;4.07;;;2.10;;
64060;SDS011;60147;55.036;73.242;2023-09-12T04:10:05;2.80;;;1.85;;
64060;SDS011;60147;55.036;73.242;2023-09-12T04:12:31;4.47;;;1.77;;
64060;SDS011;60147;55.036;73.242;2023-09-12T04:14:59;4.70;;;1.88;;
64060;SDS011;60147;55.036;73.242;2023-09-12T04:17:25;5.28;;;2.00;;
64060;SDS011;60147;55.036;73.242;2023-09-12T04:19:51;6.50;;;1.80;;
64060;SDS011;60147;55.036;73.242;2023-09-12T04:22:20;4.95;;;2.15;;
64060;SDS011;60147;55.036;73.242;2023-09-12T04:24:46;2.88;;;1.85;;
64060;SDS011;60147;55.036;73.242;2023-09-12T04:27:12;5.30;;;1.85;;
64060;SDS011;60147;55.036;73.242;2023-09-12T04:29:38;10.05;;;1.85;;
64060;SDS011;60147;55.036;73.242;2023-09-12T04:32:05;10.73;;;2.40;;
64060;SDS011;60147;55.036;73.242;2023-09-12T04:34:31;3.78;;;1.92;;
64060;SDS011;60147;55.036;73.242;2023-09-12T04:36:57;4.53;;;1.90;;
64060;SDS011;60147;55.036;73.242;2023-09-12T04:39:24;3.58;;;1.70;;
64060;SDS011;60147;55.036;73.242;2023-09-12T04:41:51;7.72;;;2.83;;
64060;SDS011;60147;55.036;73.242;2023-09-12T04:44:16;5.70;;;2.08;;
64060;SDS011;60147;55.036;73.242;2023-09-12T04:46:42;5.10;;;2.03;;
64060;SDS011;60147;55.036;73.242;2023-09-12T04:49:08;15.85;;;2.63;;
64060;SDS011;60147;55.036;73.242;2023-09-12T04:51:34;5.43;;;1.98;;
64060;SDS011;60147;55.036;73.242;2023-09-12T04:54:00;5.28;;;1.90;;
64060;SDS011;60147;55.036;73.242;2023-09-12T04:56:26;7.15;;;1.95;;
64060;SDS011;60147;55.036;73.242;2023-09-12T04:58:52;8.30;;;2.03;;
64060;SDS011;60147;55.036;73.242;2023-09-12T05:01:19;6.13;;;1.77;;
64060;SDS011;60147;55.036;73.242;2023-09-12T05:03:45;6.43;;;1.80;;
64060;SDS011;60147;55.036;73.242;2023-09-12T05:08:37;13.95;;;2.63;;
64060;SDS011;60147;55.036;73.242;2023-09-12T05:11:03;2.85;;;1.83;;
64060;SDS011;60147;55.036;73.242;2023-09-12T05:13:29;4.55;;;2.03;;
64060;SDS011;60147;55.036;73.242;2023-09-12T05:15:55;6.43;;;2.40;;
64060;SDS011;60147;55.036;73.242;2023-09-12T05:18:22;6.03;;;1.85;;
64060;SDS011;60147;55.036;73.242;2023-09-12T05:20:49;6.65;;;2.20;;
64060;SDS011;60147;55.036;73.242;2023-09-12T05:23:15;8.05;;;2.20;;
64060;SDS011;60147;55.036;73.242;2023-09-12T05:25:41;7.05;;;2.00;;
64060;SDS011;60147;55.036;73.242;2023-09-12T05:28:07;5.45;;;1.90;;
64060;SDS011;60147;55.036;73.242;2023-09-12T05:30:33;9.25;;;2.38;;
64060;SDS011;60147;55.036;73.242;2023-09-12T05:33:00;7.90;;;2.20;;
64060;SDS011;60147;55.036;73.242;2023-09-12T05:35:26;8.85;;;2.45;;
64060;SDS011;60147;55.036;73.242;2023-09-12T05:37:52;13.90;;;2.40;;
64060;SDS011;60147;55.036;73.242;2023-09-12T05:40:19;12.95;;;1.90;;
64060;SDS011;60147;55.036;73.242;2023-09-12T05:42:45;11.90;;;2.10;;
64060;SDS011;60147;55.036;73.242;2023-09-12T05:45:11;6.88;;;2.38;;
64060;SDS011;60147;55.036;73.242;2023-09-12T05:47:38;11.10;;;2.70;;
64060;SDS011;60147;55.036;73.242;2023-09-12T05:50:04;7.50;;;2.00;;
64060;SDS011;60147;55.036;73.242;2023-09-12T06:00:44;6.95;;;2.03;;
64060;SDS011;60147;55.036;73.242;2023-09-12T06:03:14;6.30;;;2.65;;
64060;SDS011;60147;55.036;73.242;2023-09-12T06:05:40;6.45;;;2.40;;
64060;SDS011;60147;55.036;73.242;2023-09-12T06:08:06;5.82;;;2.10;;
64060;SDS011;60147;55.036;73.242;2023-09-12T06:10:32;8.50;;;2.38;;
64060;SDS011;60147;55.036;73.242;2023-09-12T06:12:59;5.35;;;2.35;;
64060;SDS011;60147;55.036;73.242;2023-09-12T06:15:25;12.18;;;2.45;;
64060;SDS011;60147;55.036;73.242;2023-09-12T06:17:51;7.20;;;2.50;;
64060;SDS011;60147;55.036;73.242;2023-09-12T06:20:16;8.15;;;2.40;;
64060;SDS011;60147;55.036;73.242;2023-09-12T06:22:42;8.93;;;2.42;;
64060;SDS011;60147;55.036;73.242;2023-09-12T06:25:09;4.78;;;2.20;;
64060;SDS011;60147;55.036;73.242;2023-09-12T06:27:34;13.27;;;2.70;;
64060;SDS011;60147;55.036;73.242;2023-09-12T06:30:00;8.05;;;2.53;;
64060;SDS011;60147;55.036;73.242;2023-09-12T06:32:26;8.77;;;2.70;;
64060;SDS011;60147;55.036;73.242;2023-09-12T06:34:53;6.45;;;2.40;;
64060;SDS011;60147;55.036;73.242;2023-09-12T06:37:19;6.07;;;2.70;;
64060;SDS011;60147;55.036;73.242;2023-09-12T06:39:48;6.63;;;2.70;;
64060;SDS011;60147;55.036;73.242;2023-09-12T06:42:14;7.38;;;2.28;;
64060;SDS011;60147;55.036;73.242;2023-09-12T06:44:41;5.15;;;2.58;;
64060;SDS011;60147;55.036;73.242;2023-09-12T06:47:07;9.02;;;2.47;;
64060;SDS011;60147;55.036;73.242;2023-09-12T06:49:34;7.93;;;2.70;;
64060;SDS011;60147;55.036;73.242;2023-09-12T06:52:01;8.52;;;2.85;;
64060;SDS011;60147;55.036;73.242;2023-09-12T06:54:27;7.03;;;2.63;;
64060;SDS011;60147;55.036;73.242;2023-09-12T06:56:53;12.55;;;3.75;;
64060;SDS011;60147;55.036;73.242;2023-09-12T06:59:19;11.13;;;3.45;;
64060;SDS011;60147;55.036;73.242;2023-09-12T07:01:45;5.32;;;3.00;;
64060;SDS011;60147;55.036;73.242;2023-09-12T07:04:11;5.53;;;3.03;;
64060;SDS011;60147;55.036;73.242;2023-09-12T07:06:37;3.63;;;2.50;;
64060;SDS011;60147;55.036;73.242;2023-09-12T07:09:02;4.18;;;2.40;;
64060;SDS011;60147;55.036;73.242;2023-09-12T07:11:30;8.93;;;2.80;;
64060;SDS011;60147;55.036;73.242;2023-09-12T07:13:56;5.95;;;2.55;;
64060;SDS011;60147;55.036;73.242;2023-09-12T07:16:21;19.70;;;3.20;;
64060;SDS011;60147;55.036;73.242;2023-09-12T07:18:57;12.63;;;2.90;;
64060;SDS011;60147;55.036;73.242;2023-09-12T07:21:23;6.18;;;2.53;;
64060;SDS011;60147;55.036;73.242;2023-09-12T07:23:48;6.90;;;2.70;;
64060;SDS011;60147;55.036;73.242;2023-09-12T07:26:15;11.25;;;2.83;;
64060;SDS011;60147;55.036;73.242;2023-09-12T07:28:41;7.97;;;2.83;;
64060;SDS011;60147;55.036;73.242;2023-09-12T07:31:07;5.88;;;2.92;;
64060;SDS011;60147;55.036;73.242;2023-09-12T07:33:33;5.68;;;2.53;;
64060;SDS011;60147;55.036;73.242;2023-09-12T07:35:59;10.93;;;2.78;;
64060;SDS011;60147;55.036;73.242;2023-09-12T07:38:30;6.85;;;2.60;;
64060;SDS011;60147;55.036;73.242;2023-09-12T07:40:57;7.30;;;2.88;;
64060;SDS011;60147;55.036;73.242;2023-09-12T07:43:23;10.02;;;3.08;;
64060;SDS011;60147;55.036;73.242;2023-09-12T07:45:49;7.85;;;2.88;;
64060;SDS011;60147;55.036;73.242;2023-09-12T07:48:15;5.93;;;2.88;;
64060;SDS011;60147;55.036;73.242;2023-09-12T07:50:41;8.48;;;2.80;;
64060;SDS011;60147;55.036;73.242;2023-09-12T07:53:07;6.50;;;2.78;;
64060;SDS011;60147;55.036;73.242;2023-09-12T07:55:37;11.07;;;2.95;;
64060;SDS011;60147;55.036;73.242;2023-09-12T07:58:11;7.45;;;3.40;;
64060;SDS011;60147;55.036;73.242;2023-09-12T08:00:37;5.90;;;2.95;;
64060;SDS011;60147;55.036;73.242;2023-09-12T08:03:03;7.95;;;3.05;;
64060;SDS011;60147;55.036;73.242;2023-09-12T08:05:29;8.23;;;2.85;;
64060;SDS011;60147;55.036;73.242;2023-09-12T08:07:55;8.65;;;4.45;;
64060;SDS011;60147;55.036;73.242;2023-09-12T08:10:21;12.40;;;4.38;;
64060;SDS011;60147;55.036;73.242;2023-09-12T08:12:46;8.25;;;2.97;;
64060;SDS011;60147;55.036;73.242;2023-09-12T08:15:12;6.03;;;2.63;;
64060;SDS011;60147;55.036;73.242;2023-09-12T08:17:38;9.18;;;3.58;;
64060;SDS011;60147;55.036;73.242;2023-09-12T08:20:07;8.38;;;3.03;;
64060;SDS011;60147;55.036;73.242;2023-09-12T08:22:36;10.50;;;3.35;;
64060;SDS011;60147;55.036;73.242;2023-09-12T08:25:02;9.15;;;2.70;;
64060;SDS011;60147;55.036;73.242;2023-09-12T08:27:28;10.10;;;3.20;;
64060;SDS011;60147;55.036;73.242;2023-09-12T08:29:54;9.15;;;3.33;;
64060;SDS011;60147;55.036;73.242;2023-09-12T08:32:20;9.43;;;3.33;;
64060;SDS011;60147;55.036;73.242;2023-09-12T08:34:46;10.90;;;2.92;;
64060;SDS011;60147;55.036;73.242;2023-09-12T08:37:12;10.80;;;2.75;;
64060;SDS011;60147;55.036;73.242;2023-09-12T08:39:42;10.73;;;3.05;;
64060;SDS011;60147;55.036;73.242;2023-09-12T08:44:34;10.95;;;2.90;;
64060;SDS011;60147;55.036;73.242;2023-09-12T08:47:00;11.00;;;3.45;;
64060;SDS011;60147;55.036;73.242;2023-09-12T08:49:26;12.23;;;2.70;;
64060;SDS011;60147;55.036;73.242;2023-09-12T08:51:53;7.38;;;2.80;;
64060;SDS011;60147;55.036;73.242;2023-09-12T08:54:19;8.30;;;2.88;;
64060;SDS011;60147;55.036;73.242;2023-09-12T08:56:44;6.03;;;2.80;;
64060;SDS011;60147;55.036;73.242;2023-09-12T08:59:25;6.03;;;2.83;;
64060;SDS011;60147;55.036;73.242;2023-09-12T09:01:51;9.98;;;2.97;;
64060;SDS011;60147;55.036;73.242;2023-09-12T09:04:18;11.02;;;3.00;;
64060;SDS011;60147;55.036;73.242;2023-09-12T09:06:45;8.85;;;3.92;;
64060;SDS011;60147;55.036;73.242;2023-09-12T09:09:11;9.63;;;5.10;;
64060;SDS011;60147;55.036;73.242;2023-09-12T09:11:38;11.40;;;3.13;;
64060;SDS011;60147;55.036;73.242;2023-09-12T09:14:05;9.90;;;3.20;;
64060;SDS011;60147;55.036;73.242;2023-09-12T09:16:31;8.93;;;2.50;;
64060;SDS011;60147;55.036;73.242;2023-09-12T09:19:00;5.78;;;2.60;;
64060;SDS011;60147;55.036;73.242;2023-09-12T09:21:30;9.65;;;2.78;;
64060;SDS011;60147;55.036;73.242;2023-09-12T09:24:00;8.10;;;2.97;;
64060;SDS011;60147;55.036;73.242;2023-09-12T09:29:09;6.35;;;2.60;;
64060;SDS011;60147;55.036;73.242;2023-09-12T09:31:35;5.65;;;2.92;;
64060;SDS011;60147;55.036;73.242;2023-09-12T09:34:01;5.55;;;2.80;;
64060;SDS011;60147;55.036;73.242;2023-09-12T09:36:28;4.88;;;2.50;;
64060;SDS011;60147;55.036;73.242;2023-09-12T09:38:54;6.95;;;2.80;;
64060;SDS011;60147;55.036;73.242;2023-09-12T09:41:20;4.07;;;2.40;;
64060;SDS011;60147;55.036;73.242;2023-09-12T09:43:50;11.38;;;2.88;;
64060;SDS011;60147;55.036;73.242;2023-09-12T09:46:16;7.22;;;3.42;;
64060;SDS011;60147;55.036;73.242;2023-09-12T09:48:51;6.32;;;3.10;;
64060;SDS011;60147;55.036;73.242;2023-09-12T09:51:18;7.50;;;3.25;;
64060;SDS011;60147;55.036;73.242;2023-09-12T09:53:44;9.30;;;4.15;;
64060;SDS011;60147;55.036;73.242;2023-09-12T09:56:14;9.32;;;4.00;;
64060;SDS011;60147;55.036;73.242;2023-09-12T09:58:56;14.60;;;3.40;;
64060;SDS011;60147;55.036;73.242;2023-09-12T10:01:23;10.07;;;3.53;;
64060;SDS011;60147;55.036;73.242;2023-09-12T10:03:53;12.68;;;3.58;;
64060;SDS011;60147;55.036;73.242;2023-09-12T10:06:22;7.30;;;2.97;;
64060;SDS011;60147;55.036;73.242;2023-09-12T10:08:50;9.70;;;3.60;;
64060;SDS011;60147;55.036;73.242;2023-09-12T10:11:17;10.52;;;3.55;;
64060;SDS011;60147;55.036;73.242;2023-09-12T10:13:52;19.08;;;4.75;;
64060;SDS011;60147;55.036;73.242;2023-09-12T10:16:20;7.88;;;3.60;;
64060;SDS011;60147;55.036;73.242;2023-09-12T10:19:32;8.30;;;3.90;;
64060;SDS011;60147;55.036;73.242;2023-09-12T10:21:39;8.60;;;3.83;;
64060;SDS011;60147;55.036;73.242;2023-09-12T10:24:06;8.43;;;3.20;;
64060;SDS011;60147;55.036;73.242;2023-09-12T10:26:33;9.52;;;2.67;;
64060;SDS011;60147;55.036;73.242;2023-09-12T10:29:00;9.27;;;2.95;;
64060;SDS011;60147;55.036;73.242;2023-09-12T10:31:27;11.05;;;3.38;;
64060;SDS011;60147;55.036;73.242;2023-09-12T10:33:53;7.25;;;3.25;;
64060;SDS011;60147;55.036;73.242;2023-09-12T10:36:20;5.55;;;2.97;;
64060;SDS011;60147;55.036;73.242;2023-09-12T10:38:47;7.75;;;2.95;;
64060;SDS011;60147;55.036;73.242;2023-09-12T10:41:14;8.95;;;3.83;;
64060;SDS011;60147;55.036;73.242;2023-09-12T10:43:40;6.75;;;2.90;;
64060;SDS011;60147;55.036;73.242;2023-09-12T10:46:07;9.57;;;3.13;;
64060;SDS011;60147;55.036;73.242;2023-09-12T10:48:37;6.78;;;2.83;;
64060;SDS011;60147;55.036;73.242;2023-09-12T10:51:02;10.57;;;3.08;;
64060;SDS011;60147;55.036;73.242;2023-09-12T10:53:32;7.68;;;2.85;;
64060;SDS011;60147;55.036;73.242;2023-09-12T10:56:01;8.75;;;3.45;;
64060;SDS011;60147;55.036;73.242;2023-09-12T10:58:27;11.10;;;2.85;;
64060;SDS011;60147;55.036;73.242;2023-09-12T11:03:38;10.50;;;3.30;;
64060;SDS011;60147;55.036;73.242;2023-09-12T11:06:05;9.73;;;2.75;;
64060;SDS011;60147;55.036;73.242;2023-09-12T11:08:44;8.85;;;3.13;;
64060;SDS011;60147;55.036;73.242;2023-09-12T11:11:30;12.05;;;4.25;;
64060;SDS011;60147;55.036;73.242;2023-09-12T11:14:02;10.13;;;3.90;;
64060;SDS011;60147;55.036;73.242;2023-09-12T11:16:28;8.77;;;3.10;;
64060;SDS011;60147;55.036;73.242;2023-09-12T11:21:52;18.38;;;4.38;;
64060;SDS011;60147;55.036;73.242;2023-09-12T11:24:19;19.77;;;4.43;;
64060;SDS011;60147;55.036;73.242;2023-09-12T11:26:52;15.07;;;3.58;;
64060;SDS011;60147;55.036;73.242;2023-09-12T11:29:19;12.25;;;3.40;;
64060;SDS011;60147;55.036;73.242;2023-09-12T11:31:52;11.35;;;3.58;;
64060;SDS011;60147;55.036;73.242;2023-09-12T11:34:19;6.75;;;2.90;;
64060;SDS011;60147;55.036;73.242;2023-09-12T11:36:45;11.20;;;3.33;;
64060;SDS011;60147;55.036;73.242;2023-09-12T11:39:31;9.77;;;3.70;;
64060;SDS011;60147;55.036;73.242;2023-09-12T11:41:58;11.93;;;4.32;;
64060;SDS011;60147;55.036;73.242;2023-09-12T11:44:25;10.07;;;4.63;;
64060;SDS011;60147;55.036;73.242;2023-09-12T11:46:52;10.38;;;4.68;;
